createdAt,value
2023-01-28T00:00:14.113Z,2.40
2023-01-28T00:05:13.093Z,2.40
2023-01-28T00:10:14.297Z,1.37
2023-01-28T00:15:13.576Z,1.20
2023-01-28T00:20:13.159Z,1.13
2023-01-28T00:25:11.864Z,1.30
2023-01-28T00:30:13.639Z,1.60
2023-01-28T00:35:12.281Z,1.17
2023-01-28T00:40:14.092Z,1.43
2023-01-28T00:45:13.971Z,1.20
2023-01-28T00:50:13.930Z,1.30
2023-01-28T00:55:12.985Z,1.10
2023-01-28T01:00:15.587Z,1.30
2023-01-28T01:05:14.569Z,1.23
2023-01-28T01:10:15.131Z,1.20
2023-01-28T01:15:15.912Z,1.00
2023-01-28T01:20:17.969Z,0.90
2023-01-28T01:25:18.398Z,1.40
2023-01-28T01:30:19.785Z,1.70
2023-01-28T01:35:19.976Z,0.90
2023-01-28T01:40:19.034Z,1.20
2023-01-28T01:45:19.380Z,1.10
2023-01-28T01:50:25.536Z,1.13
2023-01-28T01:55:28.865Z,1.37
2023-01-28T02:00:28.791Z,1.90
2023-01-28T02:05:27.857Z,1.30
2023-01-28T02:10:27.106Z,1.17
2023-01-28T02:15:30.088Z,1.30
2023-01-28T02:20:52.657Z,1.00
2023-01-28T02:26:11.822Z,1.70
2023-01-28T02:31:19.181Z,1.87
2023-01-28T02:36:24.556Z,1.17
2023-01-28T02:41:31.076Z,1.60
2023-01-28T02:46:55.219Z,1.43
2023-01-28T02:52:50.713Z,1.17
2023-01-28T02:58:01.644Z,1.30
2023-01-28T03:03:12.079Z,1.63
2023-01-28T03:08:25.713Z,0.97
2023-01-28T03:13:41.829Z,1.10
2023-01-28T03:19:04.394Z,1.00
2023-01-28T03:31:16.062Z,1.00
2023-01-28T03:36:41.460Z,1.50
2023-01-28T03:41:59.084Z,1.10
2023-01-28T03:46:57.966Z,0.80
2023-01-28T03:51:57.843Z,1.30
2023-01-28T03:56:56.376Z,1.50
2023-01-28T04:01:55.737Z,1.23
2023-01-28T04:06:55.357Z,1.30
2023-01-28T04:11:58.013Z,1.10
2023-01-28T04:17:05.634Z,1.10
2023-01-28T04:22:06.728Z,1.23
2023-01-28T04:27:07.968Z,1.10
2023-01-28T04:32:08.114Z,1.30
2023-01-28T04:37:25.561Z,1.57
2023-01-28T04:43:00.043Z,1.63
2023-01-28T04:48:21.756Z,1.50
2023-01-28T04:53:35.370Z,1.10
2023-01-28T04:58:40.211Z,1.10
2023-01-28T05:03:44.037Z,0.80
2023-01-28T05:08:50.800Z,1.03
2023-01-28T05:13:51.026Z,1.37
2023-01-28T05:18:51.796Z,1.40
2023-01-28T05:23:51.594Z,2.10
2023-01-28T05:28:52.086Z,1.40
2023-01-28T05:33:50.594Z,0.90
2023-01-28T05:38:49.280Z,1.00
2023-01-28T05:43:47.792Z,1.20
2023-01-28T05:49:01.623Z,1.60
2023-01-28T05:54:20.186Z,1.00
2023-01-28T05:59:19.361Z,1.00
2023-01-28T06:04:22.023Z,1.30
2023-01-28T06:09:21.384Z,1.60
2023-01-28T06:14:21.940Z,1.50
2023-01-28T06:19:38.953Z,1.30
2023-01-28T06:24:38.704Z,1.40
2023-01-28T06:29:38.174Z,1.50
2023-01-28T06:34:36.658Z,1.00
2023-01-28T06:39:36.235Z,1.30
2023-01-28T06:44:34.786Z,1.60
2023-01-28T06:49:32.959Z,1.40
2023-01-28T06:54:31.465Z,1.57
2023-01-28T06:59:32.273Z,1.80
2023-01-28T07:04:31.024Z,2.00
2023-01-28T07:09:29.908Z,2.37
2023-01-28T07:14:28.453Z,2.67
2023-01-28T07:19:28.335Z,2.00
2023-01-28T07:24:26.934Z,1.40
2023-01-28T07:29:25.455Z,1.60
2023-01-28T07:34:23.943Z,1.87
2023-01-28T07:39:23.545Z,1.37
2023-01-28T07:44:22.402Z,3.23
2023-01-28T07:49:20.944Z,1.67
2023-01-28T07:54:19.474Z,2.97
2023-01-28T07:59:19.315Z,1.60
2023-01-28T08:04:17.615Z,1.30
2023-01-28T08:09:16.167Z,2.30
2023-01-28T08:14:14.900Z,1.47
2023-01-28T08:19:14.892Z,1.90
2023-01-28T08:24:13.091Z,1.73
2023-01-28T08:29:11.639Z,1.70
2023-01-28T08:34:10.214Z,1.33
2023-01-28T08:39:10.055Z,2.20
2023-01-28T08:44:08.526Z,2.13
2023-01-28T08:49:07.015Z,1.93
2023-01-28T08:54:05.556Z,1.73
2023-01-28T08:59:05.437Z,2.77
2023-01-28T09:04:04.406Z,2.33
2023-01-28T09:09:03.019Z,2.60
2023-01-28T09:14:01.565Z,2.20
2023-01-28T09:19:01.417Z,1.83
2023-01-28T09:23:59.808Z,1.80
2023-01-28T09:28:58.393Z,3.70
2023-01-28T09:33:57.606Z,2.80
2023-01-28T09:38:57.524Z,2.73
2023-01-28T09:44:06.476Z,2.47
2023-01-28T09:49:13.603Z,2.00
2023-01-28T09:54:28.650Z,2.10
2023-01-28T09:59:27.201Z,2.20
2023-01-28T10:04:45.985Z,1.50
2023-01-28T10:09:50.390Z,1.50
2023-01-28T10:15:00.009Z,1.30
2023-01-28T10:20:03.434Z,1.70
2023-01-28T10:25:07.297Z,2.00
2023-01-28T10:30:18.917Z,2.77
2023-01-28T10:35:17.256Z,4.40
2023-01-28T10:40:18.370Z,4.77
2023-01-28T10:45:21.635Z,4.03
2023-01-28T10:50:24.735Z,3.97
2023-01-28T10:55:25.725Z,4.40
2023-01-28T11:00:26.732Z,2.70
2023-01-28T11:05:27.781Z,3.10
2023-01-28T11:10:34.267Z,3.50
2023-01-28T11:15:33.204Z,4.20
2023-01-28T11:20:39.302Z,4.03
2023-01-28T11:25:39.751Z,3.00
2023-01-28T11:30:40.334Z,3.80
2023-01-28T11:35:38.943Z,4.03
2023-01-28T11:40:39.397Z,3.43
2023-01-28T11:45:45.399Z,3.60
2023-01-28T11:50:51.962Z,2.80
2023-01-28T11:56:07.372Z,4.43
2023-01-28T12:01:14.835Z,2.30
2023-01-28T12:06:34.754Z,3.00
2023-01-28T12:12:05.775Z,2.30
2023-01-28T12:17:16.541Z,2.43
2023-01-28T12:22:30.871Z,2.20
2023-01-28T12:27:42.097Z,2.17
2023-01-28T12:32:59.481Z,2.67
2023-01-28T12:38:06.301Z,2.27
2023-01-28T12:43:13.472Z,1.97
2023-01-28T12:48:17.892Z,3.13
2023-01-28T12:53:26.663Z,2.23
2023-01-28T12:58:36.660Z,2.87
2023-01-28T13:03:41.187Z,3.37
2023-01-28T13:08:39.306Z,2.00
2023-01-28T13:13:43.014Z,2.50
2023-01-28T13:18:48.165Z,2.50
2023-01-28T13:23:47.870Z,3.57
2023-01-28T13:28:48.967Z,3.57
2023-01-28T13:34:02.223Z,3.10
2023-01-28T13:39:03.849Z,2.20
2023-01-28T13:44:03.751Z,2.37
2023-01-28T13:49:03.534Z,2.50
2023-01-28T13:54:06.538Z,2.77
2023-01-28T13:59:39.052Z,3.30
2023-01-28T14:05:16.328Z,2.47
2023-01-28T14:10:35.814Z,2.17
2023-01-28T14:16:06.255Z,2.70
2023-01-28T14:21:12.419Z,2.10
2023-01-28T14:26:20.911Z,3.43
2023-01-28T14:31:28.888Z,2.80
2023-01-28T14:36:27.711Z,3.27
2023-01-28T14:41:28.881Z,2.57
2023-01-28T14:46:37.585Z,2.43
2023-01-28T14:51:50.801Z,2.50
2023-01-28T14:57:06.165Z,2.27
2023-01-28T15:02:17.956Z,2.57
2023-01-28T15:07:20.986Z,2.87
2023-01-28T15:12:19.517Z,3.40
2023-01-28T15:17:26.717Z,3.90
2023-01-28T15:22:28.589Z,3.90
2023-01-28T15:27:30.590Z,5.00
2023-01-28T15:32:31.760Z,4.00
2023-01-28T15:37:30.372Z,5.73
2023-01-28T15:42:31.860Z,5.00
2023-01-28T15:47:35.584Z,6.73
2023-01-28T15:52:36.901Z,5.67
2023-01-28T15:57:36.416Z,5.83
2023-01-28T16:02:44.824Z,5.93
2023-01-28T16:07:47.466Z,5.90
2023-01-28T16:12:53.304Z,6.77
2023-01-28T16:17:54.831Z,6.70
2023-01-28T16:22:55.970Z,7.60
2023-01-28T16:27:55.276Z,7.50
2023-01-28T16:32:56.915Z,8.40
2023-01-28T16:37:55.092Z,7.67
2023-01-28T16:42:56.087Z,7.90
2023-01-28T16:47:55.967Z,8.57
2023-01-28T16:52:56.352Z,9.53
2023-01-28T16:57:57.666Z,7.67
2023-01-28T17:02:57.541Z,8.53
2023-01-28T17:07:59.266Z,9.00
2023-01-28T17:12:59.076Z,8.60
2023-01-28T17:17:58.998Z,8.00
2023-01-28T17:22:58.818Z,9.23
2023-01-28T17:27:57.001Z,11.03
2023-01-28T17:32:56.133Z,10.47
2023-01-28T17:38:23.587Z,10.10
2023-01-28T17:43:21.794Z,10.07
2023-01-28T17:48:19.989Z,9.07
2023-01-28T17:53:18.607Z,8.70
2023-01-28T17:58:18.524Z,8.50
2023-01-28T18:03:17.800Z,9.60
2023-01-28T18:08:16.276Z,10.40
2023-01-28T18:13:14.832Z,11.10
2023-01-28T18:18:14.330Z,10.47
2023-01-28T18:23:13.141Z,10.30
2023-01-28T18:28:11.319Z,11.90
2023-01-28T18:33:10.175Z,10.47
2023-01-28T18:38:10.059Z,10.03
2023-01-28T18:43:08.657Z,11.40
2023-01-28T18:48:06.925Z,10.40
2023-01-28T18:53:05.105Z,10.43
2023-01-28T18:58:04.964Z,9.70
2023-01-28T19:03:03.548Z,8.87
2023-01-28T19:08:02.497Z,10.43
2023-01-28T19:13:00.809Z,11.57
2023-01-28T19:18:01.381Z,9.67
2023-01-28T19:22:59.526Z,9.50
2023-01-28T19:27:57.972Z,9.30
2023-01-28T19:32:56.559Z,9.57
2023-01-28T19:37:56.466Z,11.70
2023-01-28T19:42:55.327Z,10.30
2023-01-28T19:47:53.997Z,10.70
2023-01-28T19:52:52.542Z,11.43
2023-01-28T19:57:52.428Z,10.43
2023-01-28T20:02:52.731Z,9.20
2023-01-28T20:07:51.292Z,10.70
2023-01-28T20:12:49.761Z,10.43
2023-01-28T20:17:49.708Z,11.07
2023-01-28T20:22:48.443Z,9.33
2023-01-28T20:27:48.999Z,9.70
2023-01-28T20:32:47.195Z,8.87
2023-01-28T20:37:47.101Z,9.30
2023-01-28T20:42:45.607Z,9.00
2023-01-28T20:47:44.393Z,10.17
2023-01-28T20:52:42.889Z,10.47
2023-01-28T20:57:44.649Z,9.37
2023-01-28T21:02:45.461Z,9.30
2023-01-28T21:07:43.686Z,9.10
2023-01-28T21:12:43.243Z,9.30
2023-01-28T21:17:41.436Z,10.83
2023-01-28T21:22:39.900Z,11.27
2023-01-28T21:27:38.126Z,10.60
2023-01-28T21:32:38.045Z,11.27
2023-01-28T21:37:38.886Z,10.57
2023-01-28T21:42:37.418Z,11.47
2023-01-28T21:47:37.649Z,10.80
2023-01-28T21:52:36.186Z,9.30
2023-01-28T21:57:34.364Z,9.57
2023-01-28T22:02:32.859Z,9.00
2023-01-28T22:07:32.606Z,9.27
2023-01-28T22:12:31.105Z,9.13
2023-01-28T22:17:30.329Z,8.83
2023-01-28T22:22:28.842Z,8.07
2023-01-28T22:27:29.001Z,7.73
2023-01-28T22:32:27.507Z,9.10
2023-01-28T22:37:26.968Z,8.47
2023-01-28T22:42:25.818Z,7.80
2023-01-28T22:47:25.362Z,8.33
2023-01-28T22:52:23.892Z,7.90
2023-01-28T22:57:23.004Z,9.80
2023-01-28T23:02:21.508Z,8.17
2023-01-28T23:07:21.367Z,7.47
2023-01-28T23:12:19.841Z,8.27
2023-01-28T23:17:36.177Z,8.43
2023-01-28T23:22:53.771Z,9.83
2023-01-28T23:27:51.979Z,8.90
2023-01-28T23:32:51.531Z,7.57
2023-01-28T23:37:51.061Z,8.40
2023-01-28T23:42:50.872Z,9.40
2023-01-28T23:47:49.795Z,9.10
2023-01-28T23:52:48.338Z,8.20
2023-01-28T23:57:48.792Z,8.43
